Time;durP1;ratioP1;P1;durP2;ratioP2;P2;SDS_P1;SDS_P2;PMS_P1;PMS_P2;Temp;Humidity;BMP_temperature;BMP_pressure;BME280_temperature;BME280_humidity;BME280_pressure;Samples;Min_cycle;Max_cycle;Signal;HPM_P1;HPM_P2
2023/07/18 00:00:40;;;;;;;12.38;4.15;;;;;;;;;;4996424;28;20042;-78
2023/07/18 00:03:06;;;;;;;8.25;3.53;;;;;;;;;;4996761;28;20521;-78
2023/07/18 00:05:34;;;;;;;13.13;4.20;;;;;;;;;;4996180;28;20057;-77
2023/07/18 00:08:00;;;;;;;11.93;4.25;;;;;;;;;;4964138;28;20046;-77
2023/07/18 00:10:26;;;;;;;14.07;4.25;;;;;;;;;;4996416;28;20111;-77
2023/07/18 00:12:52;;;;;;;15.90;4.18;;;;;;;;;;4993591;28;20045;-78
2023/07/18 00:15:18;;;;;;;9.48;3.72;;;;;;;;;;4996385;28;20042;-78
2023/07/18 00:17:44;;;;;;;11.82;3.88;;;;;;;;;;4979046;28;20045;-78
2023/07/18 00:20:17;;;;;;;11.00;3.90;;;;;;;;;;4980142;28;20048;-78
2023/07/18 00:22:50;;;;;;;13.57;3.72;;;;;;;;;;4996636;28;20053;-78
2023/07/18 00:25:19;;;;;;;8.25;3.92;;;;;;;;;;4996406;28;20041;-78
2023/07/18 00:27:53;;;;;;;12.10;4.10;;;;;;;;;;4996116;28;20061;-78
2023/07/18 00:30:20;;;;;;;13.73;4.53;;;;;;;;;;4990706;28;20041;-78
2023/07/18 00:32:47;;;;;;;14.63;4.20;;;;;;;;;;4996554;28;20045;-78
2023/07/18 00:35:13;;;;;;;10.55;4.30;;;;;;;;;;4996716;28;20038;-78
2023/07/18 00:37:40;;;;;;;12.40;4.25;;;;;;;;;;4996586;28;20456;-78
2023/07/18 00:40:11;;;;;;;12.48;4.53;;;;;;;;;;4995544;28;20090;-78
2023/07/18 00:42:40;;;;;;;12.18;4.53;;;;;;;;;;4996722;28;20038;-78
2023/07/18 00:45:07;;;;;;;12.57;4.15;;;;;;;;;;4995734;28;20056;-78
2023/07/18 00:47:40;;;;;;;14.13;4.47;;;;;;;;;;4964149;28;20042;-78
2023/07/18 00:50:08;;;;;;;12.48;4.65;;;;;;;;;;4995859;28;20050;-78
2023/07/18 00:52:40;;;;;;;11.45;4.18;;;;;;;;;;4995541;28;20119;-77
2023/07/18 00:55:08;;;;;;;13.65;4.38;;;;;;;;;;5011941;28;20483;-78
2023/07/18 00:57:35;;;;;;;13.50;4.50;;;;;;;;;;4996196;28;20054;-78
2023/07/18 01:00:02;;;;;;;13.40;4.15;;;;;;;;;;4975596;28;20082;-78
2023/07/18 01:02:28;;;;;;;12.57;4.38;;;;;;;;;;4996552;28;20081;-78
2023/07/18 01:04:54;;;;;;;18.58;4.45;;;;;;;;;;4995250;28;20065;-78
2023/07/18 01:07:21;;;;;;;14.40;4.28;;;;;;;;;;5013434;28;20065;-78
2023/07/18 01:09:48;;;;;;;16.48;4.65;;;;;;;;;;5012484;28;20049;-78
2023/07/18 01:12:14;;;;;;;17.42;4.60;;;;;;;;;;4990578;28;20088;-78
2023/07/18 01:14:40;;;;;;;16.75;4.22;;;;;;;;;;4994540;28;20050;-78
2023/07/18 01:17:08;;;;;;;18.35;4.82;;;;;;;;;;4966428;28;20463;-78
2023/07/18 01:19:35;;;;;;;14.02;4.47;;;;;;;;;;4995154;28;20046;-78
2023/07/18 01:22:01;;;;;;;15.15;4.50;;;;;;;;;;5011440;28;20083;-78
2023/07/18 01:24:27;;;;;;;12.55;3.70;;;;;;;;;;4995291;28;20038;-78
2023/07/18 01:26:54;;;;;;;14.05;4.15;;;;;;;;;;5011645;28;20113;-78
2023/07/18 01:29:20;;;;;;;18.70;4.15;;;;;;;;;;4994971;28;20603;-78
2023/07/18 01:31:48;;;;;;;13.23;3.80;;;;;;;;;;4995176;28;20045;-78
2023/07/18 01:34:14;;;;;;;11.95;4.00;;;;;;;;;;4995056;28;20491;-78
2023/07/18 01:36:41;;;;;;;15.95;4.28;;;;;;;;;;4995513;28;20387;-78
2023/07/18 01:39:08;;;;;;;9.57;3.85;;;;;;;;;;4995172;28;20463;-78
2023/07/18 01:41:34;;;;;;;14.00;4.38;;;;;;;;;;4995367;28;20072;-78
2023/07/18 01:44:00;;;;;;;16.17;4.00;;;;;;;;;;4975935;28;20045;-78
2023/07/18 01:46:26;;;;;;;15.13;4.40;;;;;;;;;;4995150;28;20053;-78
2023/07/18 01:48:52;;;;;;;15.98;4.40;;;;;;;;;;4994642;28;20152;-78
2023/07/18 01:51:19;;;;;;;13.52;4.38;;;;;;;;;;4994235;28;20044;-78
2023/07/18 01:53:45;;;;;;;14.48;4.20;;;;;;;;;;5006154;28;20046;-78
2023/07/18 01:56:11;;;;;;;13.32;3.88;;;;;;;;;;4990963;28;20034;-78
2023/07/18 01:58:37;;;;;;;12.25;4.03;;;;;;;;;;4995073;28;20129;-78
2023/07/18 02:01:03;;;;;;;16.45;4.35;;;;;;;;;;4993499;28;20041;-78
2023/07/18 02:03:29;;;;;;;15.32;4.07;;;;;;;;;;5010798;28;20042;-78
2023/07/18 02:05:55;;;;;;;15.85;5.47;;;;;;;;;;4993720;28;20052;-78
2023/07/18 02:08:21;;;;;;;15.25;4.80;;;;;;;;;;4994329;28;20042;-78
2023/07/18 02:10:48;;;;;;;17.60;4.53;;;;;;;;;;4994470;28;20050;-79
2023/07/18 02:13:14;;;;;;;14.88;4.30;;;;;;;;;;4993574;28;20049;-78
2023/07/18 02:15:40;;;;;;;14.73;4.75;;;;;;;;;;4994441;28;20096;-78
2023/07/18 02:18:06;;;;;;;11.90;4.72;;;;;;;;;;4994246;28;20042;-78
2023/07/18 02:20:32;;;;;;;15.30;4.53;;;;;;;;;;4994354;28;20046;-78
2023/07/18 02:23:00;;;;;;;15.32;4.68;;;;;;;;;;4979006;28;20107;-78
2023/07/18 02:25:26;;;;;;;15.95;5.00;;;;;;;;;;4993829;28;20103;-78
2023/07/18 02:27:52;;;;;;;16.27;4.80;;;;;;;;;;5010851;28;20045;-78
2023/07/18 02:30:19;;;;;;;20.27;5.00;;;;;;;;;;5011552;28;20045;-78
2023/07/18 02:32:45;;;;;;;12.32;4.72;;;;;;;;;;4974715;28;20038;-78
2023/07/18 02:35:15;;;;;;;15.10;4.97;;;;;;;;;;4990300;28;20053;-78
2023/07/18 02:37:41;;;;;;;15.68;4.80;;;;;;;;;;4978546;28;20400;-78
2023/07/18 02:40:09;;;;;;;13.90;4.90;;;;;;;;;;4994130;28;20045;-78
2023/07/18 02:42:35;;;;;;;14.13;4.57;;;;;;;;;;4997779;28;20129;-78
2023/07/18 02:45:01;;;;;;;16.13;5.05;;;;;;;;;;4981846;28;20050;-78
2023/07/18 02:47:27;;;;;;;15.07;4.82;;;;;;;;;;4998563;28;20034;-79
2023/07/18 02:49:54;;;;;;;16.67;4.90;;;;;;;;;;4998570;28;20557;-78
2023/07/18 02:52:20;;;;;;;18.15;4.82;;;;;;;;;;4997685;28;20487;-79
2023/07/18 02:54:46;;;;;;;16.42;4.70;;;;;;;;;;5001282;28;20077;-78
2023/07/18 02:57:12;;;;;;;16.02;4.80;;;;;;;;;;4997547;28;20049;-78
2023/07/18 02:59:38;;;;;;;15.82;5.07;;;;;;;;;;4998047;28;20045;-78
2023/07/18 03:02:04;;;;;;;15.63;5.55;;;;;;;;;;4997762;28;20041;-78
2023/07/18 03:04:30;;;;;;;16.25;5.82;;;;;;;;;;4981734;28;20472;-77
2023/07/18 03:06:57;;;;;;;20.38;6.32;;;;;;;;;;4997715;28;20061;-78
2023/07/18 03:09:23;;;;;;;13.80;5.82;;;;;;;;;;4997818;28;20194;-78
2023/07/18 03:11:50;;;;;;;19.70;6.32;;;;;;;;;;4998017;28;20042;-78
2023/07/18 03:14:16;;;;;;;15.25;5.93;;;;;;;;;;4981209;28;20038;-78
2023/07/18 03:16:42;;;;;;;17.40;6.30;;;;;;;;;;5006063;28;20037;-78
2023/07/18 03:19:10;;;;;;;13.32;5.80;;;;;;;;;;5001135;28;20096;-78
2023/07/18 03:21:36;;;;;;;17.75;6.55;;;;;;;;;;5015624;28;20593;-78
2023/07/18 03:24:02;;;;;;;14.73;6.15;;;;;;;;;;4997980;28;20045;-78
2023/07/18 03:26:28;;;;;;;15.27;6.03;;;;;;;;;;4997503;28;20117;-78
2023/07/18 03:28:57;;;;;;;16.20;6.20;;;;;;;;;;5006232;28;20117;-78
2023/07/18 03:31:24;;;;;;;15.90;6.15;;;;;;;;;;4998430;28;20387;-78
2023/07/18 03:33:50;;;;;;;21.00;6.57;;;;;;;;;;4997938;28;20452;-78
2023/07/18 03:36:17;;;;;;;17.52;6.35;;;;;;;;;;4997028;28;20050;-78
2023/07/18 03:38:43;;;;;;;17.65;6.13;;;;;;;;;;4981715;28;20073;-78
2023/07/18 03:41:09;;;;;;;15.38;6.28;;;;;;;;;;4981039;28;20054;-78
2023/07/18 03:43:35;;;;;;;17.80;6.28;;;;;;;;;;5015203;28;20060;-79
2023/07/18 03:46:01;;;;;;;16.27;6.07;;;;;;;;;;4997349;28;20074;-78
2023/07/18 03:48:28;;;;;;;20.40;6.78;;;;;;;;;;4997386;28;20395;-78
2023/07/18 03:50:54;;;;;;;17.45;6.28;;;;;;;;;;4981336;28;20072;-78
2023/07/18 03:53:20;;;;;;;14.77;6.50;;;;;;;;;;4996202;28;20069;-79
2023/07/18 03:55:46;;;;;;;17.20;6.53;;;;;;;;;;4997097;28;20073;-78
2023/07/18 03:58:12;;;;;;;21.73;6.68;;;;;;;;;;4979886;28;20045;-78
2023/07/18 04:00:38;;;;;;;22.63;6.40;;;;;;;;;;4997155;28;20042;-78
2023/07/18 04:03:07;;;;;;;19.52;6.70;;;;;;;;;;4996141;28;20042;-78
2023/07/18 04:05:34;;;;;;;20.40;6.55;;;;;;;;;;4996256;28;20049;-78
2023/07/18 04:08:00;;;;;;;19.55;5.78;;;;;;;;;;4993242;28;20046;-78
2023/07/18 04:10:26;;;;;;;15.88;6.55;;;;;;;;;;4996516;28;20049;-78
2023/07/18 04:12:52;;;;;;;15.82;5.80;;;;;;;;;;4996679;28;20046;-78
2023/07/18 04:15:18;;;;;;;16.40;6.05;;;;;;;;;;4996372;28;20050;-79
2023/07/18 04:17:44;;;;;;;18.90;5.75;;;;;;;;;;4980206;28;20049;-78
2023/07/18 04:20:11;;;;;;;16.85;5.65;;;;;;;;;;5014522;28;20030;-78
2023/07/18 04:22:37;;;;;;;13.18;5.88;;;;;;;;;;4996640;28;20041;-78
2023/07/18 04:25:03;;;;;;;16.92;5.57;;;;;;;;;;4980876;28;20046;-78
2023/07/18 04:27:29;;;;;;;15.85;5.38;;;;;;;;;;4995955;28;20076;-78
2023/07/18 04:29:56;;;;;;;14.38;5.35;;;;;;;;;;4980363;28;20073;-79
2023/07/18 04:32:22;;;;;;;16.52;5.90;;;;;;;;;;4996421;28;20046;-78
2023/07/18 04:34:48;;;;;;;17.75;5.47;;;;;;;;;;4996586;28;20100;-78
2023/07/18 04:37:14;;;;;;;18.10;5.47;;;;;;;;;;5014324;28;20037;-78
2023/07/18 04:39:40;;;;;;;16.13;5.68;;;;;;;;;;4995928;28;20046;-78
2023/07/18 04:42:07;;;;;;;15.30;5.45;;;;;;;;;;4996559;28;20111;-78
2023/07/18 04:44:33;;;;;;;11.38;5.18;;;;;;;;;;4995977;28;20049;-78
2023/07/18 04:46:59;;;;;;;18.27;5.50;;;;;;;;;;4996249;28;20044;-78
2023/07/18 04:49:25;;;;;;;13.95;5.22;;;;;;;;;;4996067;28;20391;-79
2023/07/18 04:51:52;;;;;;;15.95;5.75;;;;;;;;;;4995976;28;20038;-78
2023/07/18 04:54:18;;;;;;;18.98;4.90;;;;;;;;;;4996286;28;20494;-78
2023/07/18 04:56:44;;;;;;;17.08;5.82;;;;;;;;;;4987299;28;20038;-78
2023/07/18 04:59:11;;;;;;;15.52;5.05;;;;;;;;;;4995745;28;20034;-78
2023/07/18 05:01:37;;;;;;;20.92;5.38;;;;;;;;;;4994120;28;20038;-78
2023/07/18 05:04:03;;;;;;;14.80;4.68;;;;;;;;;;4995461;28;20053;-78
2023/07/18 05:06:29;;;;;;;14.05;4.45;;;;;;;;;;4979692;28;20050;-78
2023/07/18 05:08:55;;;;;;;17.40;4.88;;;;;;;;;;4995608;28;20046;-78
2023/07/18 05:11:21;;;;;;;16.95;4.30;;;;;;;;;;5012875;28;20034;-78
2023/07/18 05:13:47;;;;;;;16.38;4.47;;;;;;;;;;4974897;28;20067;-78
2023/07/18 05:16:13;;;;;;;17.83;4.18;;;;;;;;;;4995515;28;20044;-78
2023/07/18 05:18:39;;;;;;;17.63;6.82;;;;;;;;;;5008216;28;20037;-78
2023/07/18 05:21:05;;;;;;;15.50;4.68;;;;;;;;;;4995642;28;20153;-78
2023/07/18 05:23:31;;;;;;;12.07;4.28;;;;;;;;;;4995226;28;20038;-78
2023/07/18 05:25:58;;;;;;;14.77;3.78;;;;;;;;;;4995251;28;20129;-78
2023/07/18 05:28:24;;;;;;;15.73;3.97;;;;;;;;;;4995250;28;20464;-78
2023/07/18 05:30:50;;;;;;;14.38;3.95;;;;;;;;;;5006237;28;20073;-78
2023/07/18 05:33:16;;;;;;;12.55;4.45;;;;;;;;;;5013245;28;20042;-78
2023/07/18 05:35:42;;;;;;;7.40;3.83;;;;;;;;;;4995337;28;20511;-78
2023/07/18 05:38:08;;;;;;;12.90;3.67;;;;;;;;;;4979097;28;20510;-78
2023/07/18 05:40:34;;;;;;;14.98;4.00;;;;;;;;;;4995272;28;20053;-78
2023/07/18 05:43:00;;;;;;;12.32;3.40;;;;;;;;;;4995625;28;20053;-78
2023/07/18 05:45:26;;;;;;;11.93;4.15;;;;;;;;;;4978841;28;20171;-78
2023/07/18 05:47:52;;;;;;;13.85;3.70;;;;;;;;;;4995254;28;20061;-79
2023/07/18 05:50:18;;;;;;;13.05;3.67;;;;;;;;;;4994899;28;20034;-78
2023/07/18 05:52:44;;;;;;;12.23;3.83;;;;;;;;;;4995203;28;20073;-78
2023/07/18 05:55:12;;;;;;;8.90;3.45;;;;;;;;;;4995123;28;20053;-78
2023/07/18 05:57:38;;;;;;;14.30;3.67;;;;;;;;;;4994858;28;20140;-78
2023/07/18 06:00:10;;;;;;;15.98;3.90;;;;;;;;;;4994804;28;20042;-78
2023/07/18 06:02:36;;;;;;;14.57;3.00;;;;;;;;;;5012436;28;20041;-78
2023/07/18 06:05:04;;;;;;;8.07;3.05;;;;;;;;;;4994478;28;20107;-79
2023/07/18 06:07:31;;;;;;;10.93;2.83;;;;;;;;;;4991098;28;20054;-79
2023/07/18 06:09:57;;;;;;;10.63;3.13;;;;;;;;;;4991530;28;20550;-79
2023/07/18 06:12:24;;;;;;;7.65;3.28;;;;;;;;;;4975770;28;20061;-78
2023/07/18 06:14:51;;;;;;;11.13;3.00;;;;;;;;;;4991167;28;20121;-79
2023/07/18 06:17:18;;;;;;;10.35;2.72;;;;;;;;;;4992403;28;20046;-79
2023/07/18 06:19:46;;;;;;;8.80;2.78;;;;;;;;;;4991317;28;20042;-79
2023/07/18 06:22:13;;;;;;;6.72;2.70;;;;;;;;;;4991450;28;20105;-79
2023/07/18 06:24:39;;;;;;;12.00;3.20;;;;;;;;;;4972890;28;20135;-78
2023/07/18 06:27:06;;;;;;;6.22;2.75;;;;;;;;;;4991307;28;20419;-79
2023/07/18 06:29:32;;;;;;;8.48;3.22;;;;;;;;;;4992234;28;20122;-79
2023/07/18 06:32:00;;;;;;;8.13;3.15;;;;;;;;;;4972967;28;20042;-80
2023/07/18 06:34:30;;;;;;;9.02;2.67;;;;;;;;;;4991530;28;20104;-79
2023/07/18 06:36:59;;;;;;;7.78;2.50;;;;;;;;;;4991185;28;20113;-79
2023/07/18 06:39:26;;;;;;;7.13;2.65;;;;;;;;;;4991692;28;20034;-79
2023/07/18 06:41:52;;;;;;;7.75;2.63;;;;;;;;;;4991116;28;20053;-79
2023/07/18 06:44:19;;;;;;;7.78;2.30;;;;;;;;;;4975238;28;20042;-80
2023/07/18 06:46:45;;;;;;;10.52;2.60;;;;;;;;;;4994095;28;20086;-79
2023/07/18 06:49:13;;;;;;;8.25;2.42;;;;;;;;;;4989281;28;20105;-80
2023/07/18 06:51:39;;;;;;;9.65;2.42;;;;;;;;;;4974096;28;20126;-80
2023/07/18 06:54:05;;;;;;;11.27;2.30;;;;;;;;;;4989693;28;20074;-80
2023/07/18 06:56:31;;;;;;;8.10;2.97;;;;;;;;;;4973974;28;20515;-80
2023/07/18 06:58:57;;;;;;;10.73;2.50;;;;;;;;;;4973944;28;20543;-79
2023/07/18 07:01:23;;;;;;;12.13;2.40;;;;;;;;;;4991187;28;20046;-79
2023/07/18 07:03:49;;;;;;;9.73;2.50;;;;;;;;;;4990138;28;20120;-79
2023/07/18 07:06:17;;;;;;;8.82;2.45;;;;;;;;;;4990809;28;20061;-80
2023/07/18 07:08:43;;;;;;;14.90;3.92;;;;;;;;;;4974502;28;20042;-79
2023/07/18 07:11:10;;;;;;;9.95;2.35;;;;;;;;;;4991245;28;20199;-79
2023/07/18 07:13:36;;;;;;;7.57;2.55;;;;;;;;;;4991226;28;20042;-79
2023/07/18 07:16:03;;;;;;;10.27;2.92;;;;;;;;;;4979475;28;20385;-80
2023/07/18 07:18:29;;;;;;;9.00;2.50;;;;;;;;;;4974976;28;20508;-79
2023/07/18 07:20:56;;;;;;;10.15;2.70;;;;;;;;;;4990632;28;20125;-80
2023/07/18 07:23:22;;;;;;;9.43;2.50;;;;;;;;;;4990550;28;20053;-80
2023/07/18 07:25:48;;;;;;;11.88;2.63;;;;;;;;;;4990634;28;20407;-80
2023/07/18 07:28:14;;;;;;;9.00;2.65;;;;;;;;;;4992268;28;20051;-80
2023/07/18 07:30:40;;;;;;;11.27;2.83;;;;;;;;;;4994195;28;20116;-79
2023/07/18 07:33:06;;;;;;;9.70;2.50;;;;;;;;;;4994673;28;20050;-79
2023/07/18 07:35:32;;;;;;;9.25;2.67;;;;;;;;;;4994696;28;20047;-79
2023/07/18 07:37:59;;;;;;;8.85;3.00;;;;;;;;;;4977667;28;20491;-80
2023/07/18 07:40:25;;;;;;;12.52;3.13;;;;;;;;;;4993673;28;20499;-80
2023/07/18 07:42:51;;;;;;;10.77;2.90;;;;;;;;;;4977524;28;20095;-79
2023/07/18 07:45:18;;;;;;;10.50;3.25;;;;;;;;;;4985713;28;20049;-80
2023/07/18 07:47:44;;;;;;;12.15;3.00;;;;;;;;;;4994015;28;20046;-80
2023/07/18 07:50:12;;;;;;;9.70;3.22;;;;;;;;;;4969586;28;20479;-80
2023/07/18 07:52:38;;;;;;;12.27;2.80;;;;;;;;;;4993881;28;20038;-81
2023/07/18 07:55:05;;;;;;;9.85;3.55;;;;;;;;;;4993816;28;20038;-81
2023/07/18 07:57:31;;;;;;;10.02;3.00;;;;;;;;;;4994163;28;20046;-80
2023/07/18 07:59:57;;;;;;;11.55;3.10;;;;;;;;;;4992801;28;20046;-80
2023/07/18 08:02:23;;;;;;;7.70;2.70;;;;;;;;;;4983879;28;20038;-81
2023/07/18 08:04:49;;;;;;;8.90;2.75;;;;;;;;;;4993130;28;20054;-81
2023/07/18 08:07:16;;;;;;;8.75;2.60;;;;;;;;;;5003845;28;20137;-83
2023/07/18 08:09:42;;;;;;;13.65;3.20;;;;;;;;;;4993610;28;20553;-80
2023/07/18 08:12:10;;;;;;;12.30;3.28;;;;;;;;;;4992680;28;20034;-80
2023/07/18 08:14:39;;;;;;;13.18;3.30;;;;;;;;;;4993097;28;20050;-81
2023/07/18 08:17:05;;;;;;;13.20;3.35;;;;;;;;;;4992560;28;20048;-81
2023/07/18 08:19:32;;;;;;;12.82;3.63;;;;;;;;;;4992623;28;20066;-81
2023/07/18 08:21:58;;;;;;;10.73;3.47;;;;;;;;;;4992510;28;20107;-80
2023/07/18 08:24:24;;;;;;;11.18;2.92;;;;;;;;;;4993559;28;20034;-80
2023/07/18 08:26:50;;;;;;;13.88;3.25;;;;;;;;;;4976807;28;20057;-81
2023/07/18 08:29:20;;;;;;;10.55;3.05;;;;;;;;;;4958162;28;20042;-80
2023/07/18 08:31:46;;;;;;;11.13;2.90;;;;;;;;;;4986553;28;20046;-80
2023/07/18 08:34:12;;;;;;;10.90;3.10;;;;;;;;;;4992886;28;20045;-80
2023/07/18 08:36:39;;;;;;;14.05;2.95;;;;;;;;;;4993299;28;20046;-81
2023/07/18 08:39:05;;;;;;;9.50;2.83;;;;;;;;;;4992758;28;20058;-80
2023/07/18 08:41:32;;;;;;;7.60;2.58;;;;;;;;;;4994210;28;20431;-80
2023/07/18 08:43:59;;;;;;;10.85;2.30;;;;;;;;;;4992833;28;20125;-81
2023/07/18 08:46:25;;;;;;;14.10;2.75;;;;;;;;;;4975469;28;20134;-80
2023/07/18 08:48:51;;;;;;;8.13;2.13;;;;;;;;;;4992878;28;20042;-80
2023/07/18 08:51:17;;;;;;;23.42;3.17;;;;;;;;;;4975243;28;20096;-80
2023/07/18 08:53:43;;;;;;;9.45;2.40;;;;;;;;;;4993325;28;20081;-80
2023/07/18 08:56:10;;;;;;;8.35;2.53;;;;;;;;;;4992670;28;20491;-80
2023/07/18 08:58:39;;;;;;;9.32;2.15;;;;;;;;;;4992913;28;20056;-80
2023/07/18 09:01:06;;;;;;;8.45;2.10;;;;;;;;;;4965894;28;20051;-81
2023/07/18 09:03:32;;;;;;;8.25;1.90;;;;;;;;;;4990251;28;20406;-80
2023/07/18 09:06:17;;;;;;;11.13;2.30;;;;;;;;;;4973143;28;20046;-80
2023/07/18 09:08:43;;;;;;;8.38;1.80;;;;;;;;;;4990914;28;20038;-80
2023/07/18 09:11:12;;;;;;;7.35;1.83;;;;;;;;;;4986120;28;20523;-80
2023/07/18 09:13:39;;;;;;;11.43;2.22;;;;;;;;;;4989365;28;20121;-80
2023/07/18 09:16:33;;;;;;;5.57;1.73;;;;;;;;;;4985122;28;20051;-80
2023/07/18 09:18:59;;;;;;;8.57;1.80;;;;;;;;;;4986717;28;20054;-80
2023/07/18 09:21:25;;;;;;;7.97;1.70;;;;;;;;;;4986953;28;20427;-80
2023/07/18 09:23:51;;;;;;;7.43;1.80;;;;;;;;;;4988559;28;20057;-80
2023/07/18 09:26:18;;;;;;;7.13;1.48;;;;;;;;;;4992043;28;20518;-80
2023/07/18 09:28:45;;;;;;;13.55;1.88;;;;;;;;;;4975890;28;20495;-80
2023/07/18 09:31:21;;;;;;;15.35;2.40;;;;;;;;;;4956382;28;20510;-80
2023/07/18 09:33:48;;;;;;;10.13;2.05;;;;;;;;;;4972470;28;20074;-80
2023/07/18 09:36:18;;;;;;;7.68;1.70;;;;;;;;;;4984856;28;20053;-81
2023/07/18 09:38:46;;;;;;;7.60;1.60;;;;;;;;;;4990940;28;20157;-80
2023/07/18 09:41:12;;;;;;;9.30;2.08;;;;;;;;;;4984229;28;20042;-80
2023/07/18 09:43:38;;;;;;;9.85;2.10;;;;;;;;;;4975956;28;20487;-80
2023/07/18 09:46:06;;;;;;;7.40;1.70;;;;;;;;;;4991932;28;20125;-80
2023/07/18 09:48:33;;;;;;;11.98;2.35;;;;;;;;;;4991814;28;20034;-81
2023/07/18 09:51:00;;;;;;;7.15;1.85;;;;;;;;;;4971775;28;20045;-81
2023/07/18 09:53:27;;;;;;;7.35;1.67;;;;;;;;;;4975775;28;20056;-80
2023/07/18 09:55:54;;;;;;;6.10;1.50;;;;;;;;;;4983715;28;20042;-81
2023/07/18 09:58:21;;;;;;;7.97;1.67;;;;;;;;;;4990764;28;20042;-80
2023/07/18 10:00:47;;;;;;;16.05;2.88;;;;;;;;;;4991844;28;20114;-82
2023/07/18 10:03:14;;;;;;;8.20;1.58;;;;;;;;;;4980373;28;20101;-81
2023/07/18 10:05:40;;;;;;;8.00;1.48;;;;;;;;;;4983575;28;20092;-79
2023/07/18 10:08:07;;;;;;;9.55;1.80;;;;;;;;;;4994737;28;20053;-80
2023/07/18 10:10:33;;;;;;;9.45;2.10;;;;;;;;;;4994451;28;20121;-81
2023/07/18 10:13:00;;;;;;;6.30;1.98;;;;;;;;;;4993601;28;20041;-81
2023/07/18 10:15:27;;;;;;;7.45;1.58;;;;;;;;;;4977948;28;20069;-80
2023/07/18 10:17:53;;;;;;;7.50;2.30;;;;;;;;;;4993103;28;20050;-80
2023/07/18 10:20:19;;;;;;;8.27;1.83;;;;;;;;;;4976880;28;20077;-80
2023/07/18 10:22:48;;;;;;;5.88;1.73;;;;;;;;;;4994701;28;20080;-80
2023/07/18 10:25:14;;;;;;;7.57;1.90;;;;;;;;;;4994413;28;20042;-80
2023/07/18 10:27:42;;;;;;;8.43;1.80;;;;;;;;;;4994520;28;20497;-80
2023/07/18 10:30:18;;;;;;;9.75;1.67;;;;;;;;;;4994267;28;20131;-80
2023/07/18 10:32:57;;;;;;;8.00;1.75;;;;;;;;;;4994644;28;20077;-80
2023/07/18 10:35:25;;;;;;;6.50;1.65;;;;;;;;;;4986073;28;20173;-80
2023/07/18 10:37:53;;;;;;;8.05;2.00;;;;;;;;;;4994698;28;20069;-80
2023/07/18 10:40:31;;;;;;;7.53;1.90;;;;;;;;;;4994961;28;20049;-81
2023/07/18 10:42:57;;;;;;;7.93;1.73;;;;;;;;;;4994133;28;20057;-81
2023/07/18 10:45:23;;;;;;;8.20;1.65;;;;;;;;;;4984536;28;20038;-80
2023/07/18 10:47:49;;;;;;;7.57;1.70;;;;;;;;;;4993662;28;20120;-80
2023/07/18 10:50:15;;;;;;;6.38;1.98;;;;;;;;;;4994259;28;20038;-81
2023/07/18 10:52:41;;;;;;;9.35;1.80;;;;;;;;;;4994806;28;20117;-80
2023/07/18 10:55:08;;;;;;;8.88;2.20;;;;;;;;;;4994121;28;20042;-80
2023/07/18 10:57:36;;;;;;;6.50;1.50;;;;;;;;;;5011022;28;20423;-80
2023/07/18 11:00:05;;;;;;;6.80;2.08;;;;;;;;;;4994294;28;20121;-80
2023/07/18 11:02:44;;;;;;;7.47;2.08;;;;;;;;;;4995728;28;20467;-80
2023/07/18 11:05:12;;;;;;;8.30;1.55;;;;;;;;;;4997979;28;20046;-80
2023/07/18 11:07:42;;;;;;;6.88;2.00;;;;;;;;;;4996713;28;20054;-80
2023/07/18 11:10:09;;;;;;;12.00;2.28;;;;;;;;;;4997415;28;20084;-80
2023/07/18 11:12:35;;;;;;;6.22;1.75;;;;;;;;;;4997867;28;20044;-80
2023/07/18 11:15:03;;;;;;;9.02;2.13;;;;;;;;;;4998225;28;20069;-80
2023/07/18 11:17:30;;;;;;;10.15;1.70;;;;;;;;;;4997695;28;20495;-79
2023/07/18 11:20:00;;;;;;;8.98;1.98;;;;;;;;;;5013800;28;20538;-80
2023/07/18 11:22:27;;;;;;;7.63;1.70;;;;;;;;;;4974090;28;20428;-80
2023/07/18 11:24:55;;;;;;;7.38;1.50;;;;;;;;;;4995820;28;20042;-80
2023/07/18 11:27:26;;;;;;;9.20;1.75;;;;;;;;;;4968648;28;20034;-80
2023/07/18 11:30:03;;;;;;;10.63;1.80;;;;;;;;;;4997878;28;20041;-80
2023/07/18 11:32:31;;;;;;;8.85;1.60;;;;;;;;;;4997026;28;20088;-88
2023/07/18 11:34:58;;;;;;;8.30;1.80;;;;;;;;;;4996663;28;20391;-87
2023/07/18 11:37:24;;;;;;;10.15;2.30;;;;;;;;;;4997521;28;20132;-80
2023/07/18 11:39:51;;;;;;;10.15;1.80;;;;;;;;;;5015599;28;20042;-81
2023/07/18 11:42:17;;;;;;;7.65;1.63;;;;;;;;;;5014950;28;20042;-81
2023/07/18 11:44:43;;;;;;;6.05;1.52;;;;;;;;;;4996113;28;20050;-81
2023/07/18 11:47:12;;;;;;;8.50;1.77;;;;;;;;;;4997278;28;20502;-80
2023/07/18 11:49:39;;;;;;;6.50;1.90;;;;;;;;;;5014552;28;20046;-80
2023/07/18 11:52:08;;;;;;;25.27;3.17;;;;;;;;;;4997228;28;20042;-80
2023/07/18 11:54:35;;;;;;;5.53;1.48;;;;;;;;;;5014089;28;20062;-81
2023/07/18 11:57:03;;;;;;;5.20;1.70;;;;;;;;;;4997261;28;20048;-81
2023/07/18 11:59:31;;;;;;;7.13;1.67;;;;;;;;;;4980952;28;20044;-80
2023/07/18 12:01:57;;;;;;;7.88;1.63;;;;;;;;;;4981296;28;20403;-82
2023/07/18 12:04:23;;;;;;;7.10;1.40;;;;;;;;;;4996825;28;20037;-82
2023/07/18 12:06:49;;;;;;;9.13;1.65;;;;;;;;;;4979364;28;20094;-80
2023/07/18 12:09:16;;;;;;;7.30;1.52;;;;;;;;;;4981509;28;20402;-81
2023/07/18 12:11:42;;;;;;;5.80;1.73;;;;;;;;;;4993508;28;20125;-81
2023/07/18 12:14:08;;;;;;;91.80;8.40;;;;;;;;;;4980345;28;20100;-81
2023/07/18 12:16:35;;;;;;;11.93;2.05;;;;;;;;;;4996798;28;20057;-80
2023/07/18 12:19:01;;;;;;;12.20;2.03;;;;;;;;;;4997340;28;20394;-80
2023/07/18 12:21:27;;;;;;;7.80;1.80;;;;;;;;;;4980667;28;20124;-82
2023/07/18 12:23:53;;;;;;;10.95;2.28;;;;;;;;;;4980797;28;20049;-80
2023/07/18 12:26:19;;;;;;;8.77;1.70;;;;;;;;;;4996290;28;20038;-80
2023/07/18 12:28:45;;;;;;;20.50;2.65;;;;;;;;;;4996905;28;20092;-80
2023/07/18 12:31:12;;;;;;;5.57;1.52;;;;;;;;;;5014474;28;20044;-80
2023/07/18 12:33:38;;;;;;;5.45;1.38;;;;;;;;;;4995975;28;20038;-81
2023/07/18 12:36:05;;;;;;;5.60;1.90;;;;;;;;;;4976144;28;20042;-80
2023/07/18 12:38:31;;;;;;;12.32;2.13;;;;;;;;;;4980420;28;20053;-79
2023/07/18 12:40:57;;;;;;;9.90;2.08;;;;;;;;;;4997173;28;20046;-80
2023/07/18 12:43:23;;;;;;;5.30;1.30;;;;;;;;;;5013668;28;20042;-79
2023/07/18 12:45:49;;;;;;;7.60;1.40;;;;;;;;;;5013608;28;20568;-79
2023/07/18 12:48:16;;;;;;;5.22;1.48;;;;;;;;;;4996527;28;20842;-79
2023/07/18 12:50:43;;;;;;;4.90;1.70;;;;;;;;;;4964329;28;20041;-79
2023/07/18 12:53:09;;;;;;;5.40;1.40;;;;;;;;;;4996225;28;20041;-81
2023/07/18 12:55:35;;;;;;;5.32;1.17;;;;;;;;;;4995987;28;20053;-79
2023/07/18 12:58:01;;;;;;;6.32;1.27;;;;;;;;;;4994639;28;20077;-80
2023/07/18 13:00:27;;;;;;;4.70;1.30;;;;;;;;;;4996245;28;20116;-81
2023/07/18 13:02:55;;;;;;;5.75;1.60;;;;;;;;;;4995561;28;20048;-80
2023/07/18 13:05:21;;;;;;;9.02;1.40;;;;;;;;;;4996353;28;20045;-80
2023/07/18 13:07:48;;;;;;;8.77;1.55;;;;;;;;;;4995498;28;20132;-79
2023/07/18 13:10:15;;;;;;;6.32;1.90;;;;;;;;;;4979911;28;20038;-79
2023/07/18 13:12:41;;;;;;;7.13;1.50;;;;;;;;;;4995107;28;20044;-80
2023/07/18 13:15:07;;;;;;;7.43;1.63;;;;;;;;;;4979821;28;20637;-82
2023/07/18 13:17:33;;;;;;;5.82;1.60;;;;;;;;;;4995092;28;20128;-80
2023/07/18 13:19:59;;;;;;;9.95;1.70;;;;;;;;;;4996131;28;20379;-79
2023/07/18 13:22:25;;;;;;;5.53;1.55;;;;;;;;;;4995836;28;20614;-80
2023/07/18 13:24:52;;;;;;;5.95;1.42;;;;;;;;;;4985703;28;20103;-80
2023/07/18 13:27:18;;;;;;;5.80;1.80;;;;;;;;;;4992182;28;20034;-80
2023/07/18 13:29:44;;;;;;;4.72;1.52;;;;;;;;;;4992983;28;20042;-80
2023/07/18 13:32:10;;;;;;;5.05;1.33;;;;;;;;;;4990036;28;20475;-80
2023/07/18 13:34:36;;;;;;;6.13;1.65;;;;;;;;;;4995219;28;20471;-80
2023/07/18 13:37:02;;;;;;;7.10;1.83;;;;;;;;;;4995793;28;20129;-81
2023/07/18 13:39:28;;;;;;;5.47;2.03;;;;;;;;;;5013245;28;20050;-82
2023/07/18 13:41:55;;;;;;;27.45;4.10;;;;;;;;;;4994725;28;20046;-88
2023/07/18 13:44:21;;;;;;;8.60;2.10;;;;;;;;;;4994772;28;20065;-84
2023/07/18 13:46:47;;;;;;;13.30;2.25;;;;;;;;;;4995049;28;20046;-85
2023/07/18 13:49:14;;;;;;;7.25;1.95;;;;;;;;;;5006943;28;20088;-85
2023/07/18 13:51:40;;;;;;;8.13;1.92;;;;;;;;;;4985370;28;20037;-86
2023/07/18 13:54:06;;;;;;;8.27;1.80;;;;;;;;;;4998897;28;20491;-86
2023/07/18 13:56:32;;;;;;;5.32;1.92;;;;;;;;;;4994715;28;20046;-86
2023/07/18 13:58:58;;;;;;;4.90;1.63;;;;;;;;;;4995563;28;20426;-86
2023/07/18 14:01:25;;;;;;;5.55;1.75;;;;;;;;;;4979943;28;20479;-86
2023/07/18 14:03:51;;;;;;;6.45;1.85;;;;;;;;;;4993550;28;20045;-84
2023/07/18 14:06:17;;;;;;;5.10;1.70;;;;;;;;;;4990648;28;20541;-84
2023/07/18 14:08:43;;;;;;;6.50;1.90;;;;;;;;;;4978262;28;20113;-84
2023/07/18 14:11:09;;;;;;;7.07;1.65;;;;;;;;;;4994712;28;20046;-84
2023/07/18 14:13:35;;;;;;;4.55;1.60;;;;;;;;;;4978150;28;20116;-84
2023/07/18 14:16:01;;;;;;;9.65;1.75;;;;;;;;;;4995004;28;20468;-84
2023/07/18 14:18:27;;;;;;;7.28;1.42;;;;;;;;;;4994309;28;20042;-84
2023/07/18 14:20:53;;;;;;;5.90;1.50;;;;;;;;;;4994765;28;20091;-86
2023/07/18 14:23:20;;;;;;;8.15;1.80;;;;;;;;;;4994714;28;20052;-86
2023/07/18 14:25:48;;;;;;;4.93;1.83;;;;;;;;;;4994138;28;20134;-84
2023/07/18 14:28:14;;;;;;;5.97;2.03;;;;;;;;;;4978372;28;20069;-84
2023/07/18 14:30:40;;;;;;;6.30;1.77;;;;;;;;;;4994308;28;20045;-85
2023/07/18 14:33:07;;;;;;;6.07;1.95;;;;;;;;;;4994671;28;20061;-84